Time;durP1;ratioP1;P1;durP2;ratioP2;P2;SDS_P1;SDS_P2;PMS_P1;PMS_P2;Temp;Humidity;BMP_temperature;BMP_pressure;BME280_temperature;BME280_humidity;BME280_pressure;Samples;Min_cycle;Max_cycle;Signal;HPM_P1;HPM_P2
2021/05/09 00:00:44;;;;;;;1.98;1.10;;;12.70;99.90;;;;;;6217283;23;20416;-92
2021/05/09 00:03:09;;;;;;;3.97;1.50;;;12.70;99.90;;;;;;6219505;23;19997;-94
2021/05/09 00:05:35;;;;;;;2.58;1.08;;;12.70;99.90;;;;;;6218393;23;20040;-93
2021/05/09 00:08:01;;;;;;;2.00;1.05;;;12.70;99.90;;;;;;6218043;23;20424;-92
2021/05/09 00:10:26;;;;;;;1.13;1.02;;;12.70;99.90;;;;;;6226030;23;20016;-94
2021/05/09 00:12:52;;;;;;;1.33;1.02;;;12.70;99.90;;;;;;6218464;23;20016;-93
2021/05/09 00:15:21;;;;;;;1.83;1.15;;;12.80;99.90;;;;;;6218801;23;20057;-94
2021/05/09 00:17:46;;;;;;;2.03;1.20;;;12.70;99.90;;;;;;6219976;23;20009;-94
2021/05/09 00:20:13;;;;;;;2.28;1.40;;;12.70;99.90;;;;;;6219905;23;20088;-93
2021/05/09 00:22:39;;;;;;;1.90;1.20;;;12.70;99.90;;;;;;6218663;23;20008;-94
2021/05/09 00:25:06;;;;;;;2.50;1.00;;;12.70;99.90;;;;;;6219568;23;20009;-94
2021/05/09 00:27:31;;;;;;;2.63;1.20;;;12.70;99.90;;;;;;6218481;23;20019;-94
2021/05/09 00:29:57;;;;;;;2.90;1.40;;;12.80;99.90;;;;;;6218438;23;20743;-94
2021/05/09 00:32:23;;;;;;;2.97;1.70;;;12.80;99.90;;;;;;6216922;23;20059;-93
2021/05/09 00:34:48;;;;;;;1.52;1.25;;;12.80;99.90;;;;;;6217369;23;20028;-94
2021/05/09 00:37:14;;;;;;;4.47;1.60;;;12.70;99.90;;;;;;6217095;23;20000;-93
2021/05/09 00:39:40;;;;;;;5.63;1.88;;;12.80;99.90;;;;;;6220155;23;20023;-93
2021/05/09 00:42:07;;;;;;;4.18;1.50;;;12.70;99.90;;;;;;6224158;23;20013;-93
2021/05/09 00:44:34;;;;;;;2.42;1.58;;;12.80;99.90;;;;;;6223180;23;20001;-94
2021/05/09 00:47:10;;;;;;;4.45;1.48;;;12.70;99.90;;;;;;6219685;23;20008;-94
2021/05/09 00:49:37;;;;;;;4.13;1.35;;;12.70;99.90;;;;;;6220046;23;20005;-93
2021/05/09 00:52:03;;;;;;;1.45;1.27;;;12.70;99.90;;;;;;6217731;23;20004;-94
2021/05/09 00:54:32;;;;;;;5.60;1.52;;;12.60;99.90;;;;;;6218729;23;20016;-94
2021/05/09 00:56:58;;;;;;;3.13;1.40;;;12.60;99.90;;;;;;6218085;23;20015;-93
2021/05/09 00:59:28;;;;;;;3.92;1.05;;;12.70;99.90;;;;;;6217611;23;20040;-94
2021/05/09 01:01:55;;;;;;;3.15;1.33;;;12.60;99.90;;;;;;6216792;23;20000;-92
2021/05/09 01:04:21;;;;;;;3.60;1.25;;;12.60;99.90;;;;;;6217211;23;20001;-93
2021/05/09 01:06:48;;;;;;;2.15;1.30;;;12.60;99.90;;;;;;6217848;23;19996;-94
2021/05/09 01:09:13;;;;;;;1.73;1.08;;;12.60;99.90;;;;;;6218408;23;20037;-94
2021/05/09 01:11:43;;;;;;;0.73;0.73;;;12.60;99.90;;;;;;6219563;23;20001;-93
2021/05/09 01:14:08;;;;;;;2.08;1.20;;;12.60;99.90;;;;;;6219993;23;20019;-93
2021/05/09 01:16:34;;;;;;;2.88;1.00;;;12.60;99.90;;;;;;6220258;23;20000;-93
2021/05/09 01:19:00;;;;;;;3.10;1.20;;;12.60;99.90;;;;;;6220561;23;20409;-93
2021/05/09 01:21:26;;;;;;;2.88;1.10;;;12.60;99.90;;;;;;6218351;23;20016;-93
2021/05/09 01:23:52;;;;;;;1.60;1.17;;;12.60;99.90;;;;;;6218255;23;20039;-93
2021/05/09 01:26:17;;;;;;;1.27;1.17;;;12.60;99.90;;;;;;6217314;23;20008;-93
2021/05/09 01:28:45;;;;;;;2.92;1.23;;;12.60;99.90;;;;;;6217081;23;20012;-94
2021/05/09 01:31:11;;;;;;;2.75;1.02;;;12.60;99.90;;;;;;6217162;23;20440;-94
2021/05/09 01:33:38;;;;;;;2.67;0.93;;;12.60;99.90;;;;;;6222109;23;20032;-93
2021/05/09 01:36:04;;;;;;;3.83;1.10;;;12.60;99.90;;;;;;6227710;23;20007;-93
2021/05/09 01:38:30;;;;;;;2.33;1.10;;;12.60;99.90;;;;;;6229181;23;20035;-93
2021/05/09 01:40:56;;;;;;;1.95;1.23;;;12.60;99.90;;;;;;6230971;23;20012;-94
2021/05/09 01:43:21;;;;;;;1.75;1.10;;;12.70;99.90;;;;;;6227241;23;20011;-92
2021/05/09 01:45:48;;;;;;;1.67;1.00;;;12.60;99.90;;;;;;6228150;23;20079;-93
2021/05/09 01:48:14;;;;;;;2.00;0.93;;;12.70;99.90;;;;;;6227202;23;20031;-94
2021/05/09 01:50:40;;;;;;;3.95;1.05;;;12.70;99.90;;;;;;6226457;23;20004;-93
2021/05/09 01:53:05;;;;;;;2.03;1.13;;;12.60;99.90;;;;;;6226365;23;20087;-92
2021/05/09 01:55:32;;;;;;;4.55;1.58;;;12.70;99.90;;;;;;6227101;23;20027;-94
2021/05/09 01:57:58;;;;;;;0.90;0.90;;;12.60;99.90;;;;;;6227403;23;20005;-94
2021/05/09 02:00:24;;;;;;;2.42;0.88;;;12.60;99.90;;;;;;6227826;23;20011;-93
2021/05/09 02:02:50;;;;;;;1.48;1.00;;;12.60;99.90;;;;;;6225439;23;20068;-93
2021/05/09 02:05:17;;;;;;;1.52;1.08;;;12.60;99.90;;;;;;6214628;23;20455;-94
2021/05/09 02:07:43;;;;;;;1.30;1.20;;;12.60;99.90;;;;;;6215996;23;20043;-94
2021/05/09 02:10:10;;;;;;;1.75;1.00;;;12.60;99.90;;;;;;6216820;23;20004;-93
2021/05/09 02:12:37;;;;;;;1.48;0.90;;;12.60;99.90;;;;;;6215802;23;20035;-95
2021/05/09 02:15:07;;;;;;;1.90;0.93;;;12.60;99.90;;;;;;6215427;23;20326;-93
2021/05/09 02:17:33;;;;;;;2.75;1.00;;;12.60;99.90;;;;;;6215698;23;20063;-93
2021/05/09 02:19:58;;;;;;;1.23;1.08;;;12.60;99.90;;;;;;6215972;23;20070;-92
2021/05/09 02:22:24;;;;;;;1.70;1.17;;;12.60;99.90;;;;;;6215183;23;20005;-94
2021/05/09 02:24:50;;;;;;;4.82;1.15;;;12.60;99.90;;;;;;6215101;23;20012;-93
2021/05/09 02:27:16;;;;;;;2.67;0.90;;;12.60;99.90;;;;;;6215591;23;20004;-93
2021/05/09 02:29:41;;;;;;;1.48;0.88;;;12.60;99.90;;;;;;6215172;23;20446;-94
2021/05/09 02:32:07;;;;;;;1.42;1.00;;;12.60;99.90;;;;;;6215409;23;20015;-93
2021/05/09 02:34:34;;;;;;;2.47;1.17;;;12.50;99.90;;;;;;6222872;23;20017;-94
2021/05/09 02:37:01;;;;;;;2.30;1.10;;;12.50;99.90;;;;;;6224923;23;20009;-94
2021/05/09 02:39:28;;;;;;;1.52;0.90;;;12.50;99.90;;;;;;6224347;23;20028;-94
2021/05/09 02:41:53;;;;;;;3.80;1.08;;;12.60;99.90;;;;;;6226213;23;20000;-94
2021/05/09 02:44:20;;;;;;;2.22;0.90;;;12.50;99.90;;;;;;6225491;23;20027;-94
2021/05/09 02:46:46;;;;;;;1.90;0.75;;;12.50;99.90;;;;;;6227066;23;20005;-94
2021/05/09 02:49:11;;;;;;;1.75;0.63;;;12.50;99.90;;;;;;6227618;23;20031;-94
2021/05/09 02:51:38;;;;;;;1.63;0.70;;;12.50;99.90;;;;;;6223734;23;20008;-94
2021/05/09 02:54:04;;;;;;;1.33;0.60;;;12.50;99.90;;;;;;6220326;23;20020;-92
2021/05/09 02:56:30;;;;;;;0.85;0.60;;;12.50;99.90;;;;;;6222130;23;20000;-93
2021/05/09 02:58:55;;;;;;;3.03;0.90;;;12.50;99.90;;;;;;6217552;23;20011;-93
2021/05/09 03:01:21;;;;;;;1.73;0.68;;;12.50;99.90;;;;;;6214861;23;20344;-93
2021/05/09 03:03:47;;;;;;;1.52;0.60;;;12.50;99.90;;;;;;6217125;23;20454;-93
2021/05/09 03:06:12;;;;;;;1.08;0.50;;;12.50;99.90;;;;;;6224689;23;20455;-92
2021/05/09 03:08:38;;;;;;;1.35;0.70;;;12.50;99.90;;;;;;6224179;23;20015;-93
2021/05/09 03:11:05;;;;;;;3.08;0.63;;;12.50;99.90;;;;;;6224457;23;20020;-95
2021/05/09 03:13:31;;;;;;;1.58;0.60;;;12.50;99.90;;;;;;6223537;23;20017;-93
2021/05/09 03:15:58;;;;;;;0.65;0.60;;;12.50;99.90;;;;;;6224081;23;20028;-93
2021/05/09 03:18:25;;;;;;;0.82;0.57;;;12.50;99.90;;;;;;6223599;23;20080;-93
2021/05/09 03:20:54;;;;;;;1.30;0.55;;;12.40;99.90;;;;;;6223737;23;20082;-92
2021/05/09 03:23:19;;;;;;;0.90;0.60;;;12.40;99.90;;;;;;6223988;23;20016;-94
2021/05/09 03:25:47;;;;;;;1.00;0.50;;;12.40;99.90;;;;;;6223491;23;20087;-92
2021/05/09 03:28:16;;;;;;;1.00;0.50;;;12.40;99.90;;;;;;6224202;23;20009;-94
2021/05/09 03:30:41;;;;;;;1.90;0.32;;;12.40;99.90;;;;;;6223906;23;20015;-94
2021/05/09 03:33:07;;;;;;;1.23;0.70;;;12.40;99.90;;;;;;6222522;23;20012;-94
2021/05/09 03:35:33;;;;;;;1.52;0.50;;;12.40;99.90;;;;;;6215070;23;20004;-95
2021/05/09 03:38:00;;;;;;;1.42;0.57;;;12.40;99.90;;;;;;6214613;23;20439;-94
2021/05/09 03:40:26;;;;;;;1.33;0.47;;;12.40;99.90;;;;;;6215316;23;20005;-93
2021/05/09 03:42:52;;;;;;;0.60;0.40;;;12.40;99.90;;;;;;6214406;23;20062;-94
2021/05/09 03:45:18;;;;;;;0.52;0.47;;;12.40;99.90;;;;;;6214901;23;20004;-95
2021/05/09 03:47:44;;;;;;;0.50;0.50;;;12.40;99.90;;;;;;6214650;23;20071;-95
2021/05/09 03:50:10;;;;;;;1.05;0.60;;;12.40;99.90;;;;;;6214463;23;20008;-95
2021/05/09 03:52:36;;;;;;;1.60;0.57;;;12.40;99.90;;;;;;6214250;23;20016;-94
2021/05/09 03:55:02;;;;;;;0.43;0.40;;;12.40;99.90;;;;;;6214422;23;20088;-94
2021/05/09 03:57:28;;;;;;;0.82;0.77;;;12.40;99.90;;;;;;6214864;23;20015;-94
2021/05/09 03:59:53;;;;;;;1.58;0.60;;;12.40;99.90;;;;;;6214687;23;20004;-95
2021/05/09 04:02:20;;;;;;;0.77;0.65;;;12.30;99.90;;;;;;6214494;23;20005;-95
2021/05/09 04:04:46;;;;;;;0.57;0.57;;;12.40;99.90;;;;;;6214476;23;20012;-95
2021/05/09 04:07:12;;;;;;;2.85;0.90;;;12.40;99.90;;;;;;6214755;23;20087;-94
2021/05/09 04:09:38;;;;;;;0.50;0.50;;;12.40;99.90;;;;;;6215242;23;20031;-95
2021/05/09 04:12:05;;;;;;;1.00;0.80;;;12.40;99.90;;;;;;6214915;23;20306;-94
2021/05/09 04:14:34;;;;;;;1.48;0.70;;;12.40;99.90;;;;;;6213643;23;20008;-94
2021/05/09 04:17:00;;;;;;;0.88;0.70;;;12.40;99.90;;;;;;6214915;23;20000;-95
2021/05/09 04:19:26;;;;;;;1.08;0.80;;;12.40;99.90;;;;;;6215341;23;20013;-94
2021/05/09 04:21:51;;;;;;;2.17;0.90;;;12.40;99.90;;;;;;6214838;23;20057;-95
2021/05/09 04:24:18;;;;;;;0.63;0.63;;;12.40;99.90;;;;;;6214600;23;20020;-93
2021/05/09 04:26:43;;;;;;;3.70;0.70;;;12.40;99.90;;;;;;6214058;23;20015;-95
2021/05/09 04:29:09;;;;;;;0.88;0.73;;;12.40;99.90;;;;;;6216513;23;20005;-94
2021/05/09 04:31:35;;;;;;;1.38;0.88;;;12.40;99.90;;;;;;6223746;23;20016;-93
2021/05/09 04:34:00;;;;;;;2.28;0.93;;;12.40;99.90;;;;;;6221997;23;20067;-94
2021/05/09 04:36:26;;;;;;;1.95;1.00;;;12.40;99.90;;;;;;6221486;23;20008;-96
2021/05/09 04:38:52;;;;;;;1.70;0.75;;;12.40;99.90;;;;;;6221321;23;20016;-94
2021/05/09 04:41:18;;;;;;;1.42;0.80;;;12.40;99.90;;;;;;6221985;23;20009;-93
2021/05/09 04:43:43;;;;;;;1.48;0.80;;;12.40;99.90;;;;;;6218045;23;20080;-94
2021/05/09 04:46:09;;;;;;;1.65;0.73;;;12.40;99.90;;;;;;6220905;23;20005;-95
2021/05/09 04:48:35;;;;;;;0.85;0.85;;;12.30;99.90;;;;;;6218391;23;20059;-94
2021/05/09 04:51:01;;;;;;;3.15;0.77;;;12.30;99.90;;;;;;6218672;23;20061;-94
2021/05/09 04:53:36;;;;;;;0.82;0.60;;;12.40;99.90;;;;;;6221324;23;20023;-95
2021/05/09 04:56:07;;;;;;;0.30;0.30;;;12.30;99.90;;;;;;6217455;23;20033;-96
2021/05/09 04:58:36;;;;;;;0.40;0.40;;;12.30;99.90;;;;;;6215594;23;20012;-93
2021/05/09 05:01:03;;;;;;;0.38;0.38;;;12.30;99.90;;;;;;6214670;23;20012;-95
2021/05/09 05:03:29;;;;;;;0.50;0.50;;;12.20;99.90;;;;;;6214425;23;20015;-95
2021/05/09 05:05:56;;;;;;;1.45;0.57;;;12.20;99.90;;;;;;6220120;23;20013;-94
2021/05/09 05:08:22;;;;;;;2.85;0.55;;;12.20;99.90;;;;;;6220303;23;20004;-95
2021/05/09 05:10:49;;;;;;;0.70;0.40;;;12.20;99.90;;;;;;6220789;23;20005;-94
2021/05/09 05:13:26;;;;;;;0.90;0.43;;;12.20;99.90;;;;;;6225068;23;20019;-96
2021/05/09 05:15:56;;;;;;;0.70;0.50;;;12.10;99.90;;;;;;6222853;23;20035;-95
2021/05/09 05:18:23;;;;;;;1.42;0.50;;;12.10;99.90;;;;;;6222197;23;20004;-94
2021/05/09 05:20:50;;;;;;;0.68;0.40;;;12.10;99.90;;;;;;6217158;23;19997;-95
2021/05/09 05:23:16;;;;;;;1.00;0.28;;;12.00;99.90;;;;;;6216707;23;20008;-94
2021/05/09 05:25:43;;;;;;;0.50;0.40;;;12.00;99.90;;;;;;6216814;23;20000;-94
2021/05/09 05:28:09;;;;;;;0.52;0.30;;;12.00;99.90;;;;;;6216757;23;20012;-95
2021/05/09 05:30:35;;;;;;;1.15;0.40;;;12.00;99.90;;;;;;6216255;23;20091;-94
2021/05/09 05:33:01;;;;;;;0.32;0.30;;;12.00;99.90;;;;;;6225233;23;20099;-94
2021/05/09 05:35:27;;;;;;;0.47;0.38;;;12.00;99.90;;;;;;6222672;23;20005;-94
2021/05/09 05:37:57;;;;;;;0.80;0.22;;;11.90;99.90;;;;;;6219611;23;20016;-94
2021/05/09 05:40:23;;;;;;;1.27;0.50;;;11.90;99.90;;;;;;6217662;23;20005;-93
2021/05/09 05:42:50;;;;;;;0.28;0.28;;;11.90;99.90;;;;;;6216539;23;20008;-94
2021/05/09 05:45:16;;;;;;;1.17;0.50;;;11.90;99.90;;;;;;6216279;23;20009;-94
2021/05/09 05:47:42;;;;;;;0.30;0.30;;;11.90;99.90;;;;;;6215970;23;20099;-94
2021/05/09 05:50:09;;;;;;;1.25;0.45;;;11.90;99.90;;;;;;6215252;23;20063;-94
2021/05/09 05:52:35;;;;;;;1.05;0.30;;;11.80;99.90;;;;;;6214804;23;20104;-94
2021/05/09 05:55:01;;;;;;;0.25;0.20;;;11.80;99.90;;;;;;6215761;23;20080;-94
2021/05/09 05:57:27;;;;;;;1.05;0.55;;;11.80;99.90;;;;;;6215334;23;20013;-96
2021/05/09 05:59:53;;;;;;;0.35;0.35;;;11.80;99.90;;;;;;6215532;23;20001;-95
2021/05/09 06:02:18;;;;;;;1.90;0.40;;;11.80;99.90;;;;;;6215953;23;20004;-94
2021/05/09 06:04:44;;;;;;;0.93;0.40;;;11.80;99.90;;;;;;6215933;23;20088;-96
2021/05/09 06:07:12;;;;;;;1.33;0.52;;;11.80;99.90;;;;;;6215553;23;20123;-94
2021/05/09 06:09:39;;;;;;;0.95;0.38;;;11.80;99.90;;;;;;6215642;23;20008;-93
2021/05/09 06:12:06;;;;;;;3.70;0.50;;;11.80;99.90;;;;;;6215976;23;20589;-94
2021/05/09 06:14:32;;;;;;;1.85;0.50;;;11.80;99.90;;;;;;6216712;23;20016;-94
2021/05/09 06:17:05;;;;;;;0.52;0.35;;;11.80;99.90;;;;;;6216325;23;20005;-95
2021/05/09 06:19:31;;;;;;;1.25;0.50;;;11.80;99.90;;;;;;6216041;23;20035;-95
2021/05/09 06:22:00;;;;;;;1.98;0.50;;;11.80;99.90;;;;;;6228604;23;20001;-95
2021/05/09 06:24:38;;;;;;;;;;;;;;;;;;;;;
2021/05/09 06:27:04;;;;;;;0.70;0.35;;;11.90;99.90;;;;;;6231958;23;20000;-95
2021/05/09 06:29:30;;;;;;;0.57;0.40;;;11.90;99.90;;;;;;6229433;23;20015;-95
2021/05/09 06:32:01;;;;;;;1.48;0.45;;;11.90;99.90;;;;;;6229205;23;20013;-94
2021/05/09 06:34:30;;;;;;;1.38;0.40;;;11.90;99.90;;;;;;6204334;23;20010;-95
2021/05/09 06:36:56;;;;;;;1.10;0.60;;;11.90;99.90;;;;;;6226167;23;20008;-94
2021/05/09 06:43:04;;;;;;;1.13;0.40;;;11.90;99.90;;;;;;6253690;22;20540;-95
2021/05/09 06:45:32;;;;;;;2.45;0.60;;;11.90;99.90;;;;;;6231677;23;20024;-95
2021/05/09 06:48:19;;;;;;;3.85;0.60;;;11.90;99.90;;;;;;6230955;23;19996;-96
2021/05/09 06:50:50;;;;;;;3.63;0.70;;;11.90;99.90;;;;;;6259731;23;20007;-94
2021/05/09 06:53:15;;;;;;;1.63;0.63;;;11.90;99.90;;;;;;6228414;23;20023;-94
2021/05/09 06:55:58;;;;;;;1.65;0.65;;;11.90;99.90;;;;;;6259483;23;20000;-94
2021/05/09 06:58:24;;;;;;;3.30;0.77;;;11.90;99.90;;;;;;6238508;23;20088;-95
2021/05/09 07:00:50;;;;;;;5.20;0.80;;;11.90;99.90;;;;;;6237681;23;20008;-96
2021/05/09 07:03:18;;;;;;;2.15;0.40;;;11.90;99.90;;;;;;6243233;23;20011;-96
2021/05/09 07:05:46;;;;;;;2.17;0.63;;;11.90;99.90;;;;;;6243455;23;20064;-94
2021/05/09 07:08:12;;;;;;;2.22;0.77;;;11.90;99.90;;;;;;6239375;23;20067;-94
2021/05/09 07:10:43;;;;;;;1.63;0.70;;;11.80;99.90;;;;;;6220366;23;20014;-96
2021/05/09 07:13:09;;;;;;;1.48;0.60;;;11.80;99.90;;;;;;6272846;22;20020;-95
2021/05/09 07:15:37;;;;;;;4.28;0.80;;;11.80;99.90;;;;;;6247532;22;20014;-95
2021/05/09 07:18:29;;;;;;;3.72;0.65;;;11.80;99.90;;;;;;6273236;22;20004;-96
2021/05/09 07:20:56;;;;;;;2.67;0.90;;;11.90;99.90;;;;;;6271752;22;19988;-95
2021/05/09 07:23:22;;;;;;;4.20;0.80;;;11.90;99.90;;;;;;6243120;23;20075;-94
2021/05/09 07:25:51;;;;;;;3.45;0.80;;;11.90;99.90;;;;;;6246712;23;19996;-95
2021/05/09 07:28:18;;;;;;;2.72;0.95;;;11.90;99.90;;;;;;6271056;22;20000;-94
2021/05/09 07:30:46;;;;;;;2.28;0.80;;;12.00;99.90;;;;;;6245293;23;20063;-93
2021/05/09 07:33:13;;;;;;;2.80;0.90;;;12.00;99.90;;;;;;6245286;22;20026;-95
2021/05/09 07:35:40;;;;;;;6.32;1.02;;;12.00;99.90;;;;;;6244045;23;20028;-93
2021/05/09 07:38:16;;;;;;;3.45;0.85;;;12.00;99.90;;;;;;6244213;23;19992;-95
2021/05/09 07:40:42;;;;;;;4.88;1.13;;;11.90;99.90;;;;;;6244684;23;20012;-93
2021/05/09 07:43:08;;;;;;;2.65;0.75;;;11.90;99.90;;;;;;6270119;22;20056;-94
2021/05/09 07:45:35;;;;;;;4.57;0.90;;;11.90;99.90;;;;;;6269486;23;20019;-94
2021/05/09 07:48:01;;;;;;;6.32;1.15;;;11.90;99.90;;;;;;6241156;23;20007;-94
2021/05/09 07:50:30;;;;;;;4.78;0.60;;;11.80;99.90;;;;;;6260734;23;20020;-93
2021/05/09 07:52:59;;;;;;;4.93;0.90;;;11.80;99.90;;;;;;6253697;23;20020;-93
2021/05/09 07:55:26;;;;;;;2.88;1.10;;;11.80;99.90;;;;;;6256402;23;20007;-94
2021/05/09 07:57:52;;;;;;;4.35;0.80;;;11.80;99.90;;;;;;6233486;23;20014;-94
2021/05/09 08:00:20;;;;;;;2.53;0.88;;;11.80;99.90;;;;;;6229146;23;20027;-93
2021/05/09 08:02:46;;;;;;;4.28;1.10;;;11.80;99.90;;;;;;6240640;23;20011;-94
2021/05/09 08:05:12;;;;;;;3.35;0.80;;;11.70;99.90;;;;;;6240516;23;20001;-94
2021/05/09 08:07:53;;;;;;;5.90;1.20;;;11.80;99.90;;;;;;6266923;22;20008;-93
2021/05/09 08:10:35;;;;;;;10.57;1.85;;;11.80;99.90;;;;;;6206070;23;20036;-94
2021/05/09 08:13:04;;;;;;;7.30;0.95;;;11.80;99.90;;;;;;6237635;23;20020;-94
2021/05/09 08:15:34;;;;;;;6.20;1.02;;;11.90;99.90;;;;;;6234384;23;20028;-94
2021/05/09 08:18:01;;;;;;;2.78;1.05;;;11.90;99.90;;;;;;6239863;23;20000;-96
2021/05/09 08:20:27;;;;;;;6.88;1.25;;;11.90;99.90;;;;;;6256478;23;20336;-93
2021/05/09 08:22:53;;;;;;;2.55;0.70;;;11.90;99.90;;;;;;6251608;23;20436;-93
2021/05/09 08:25:19;;;;;;;3.25;1.00;;;12.00;99.90;;;;;;6256552;23;20035;-94
2021/05/09 08:27:46;;;;;;;4.25;1.10;;;12.00;99.90;;;;;;6223508;23;20095;-94
2021/05/09 08:30:19;;;;;;;4.95;1.02;;;12.10;99.90;;;;;;6228994;23;20055;-95
2021/05/09 08:32:45;;;;;;;5.13;1.23;;;12.10;99.90;;;;;;6228597;23;20019;-94
2021/05/09 08:35:11;;;;;;;3.55;0.85;;;12.20;99.90;;;;;;6264290;23;20060;-94
2021/05/09 08:37:41;;;;;;;4.07;1.00;;;12.20;99.90;;;;;;6257726;23;20030;-94
2021/05/09 08:40:09;;;;;;;8.52;1.58;;;12.20;99.90;;;;;;6230133;23;20404;-95
2021/05/09 08:42:36;;;;;;;6.57;1.05;;;12.20;99.90;;;;;;6233868;23;20011;-94
2021/05/09 08:45:01;;;;;;;3.40;1.00;;;12.30;99.90;;;;;;6260825;23;20024;-95
2021/05/09 08:47:37;;;;;;;6.00;1.08;;;12.30;99.90;;;;;;6257823;23;20011;-94
2021/05/09 08:50:06;;;;;;;5.35;0.93;;;12.40;99.90;;;;;;6239441;23;20004;-95
2021/05/09 08:52:33;;;;;;;7.53;2.00;;;12.50;99.90;;;;;;6231317;23;20042;-94
2021/05/09 08:54:59;;;;;;;7.82;1.25;;;12.50;99.90;;;;;;6229497;23;20004;-95
2021/05/09 08:57:25;;;;;;;5.50;1.50;;;12.60;99.90;;;;;;6227448;23;20008;-95
2021/05/09 08:59:51;;;;;;;6.07;1.30;;;12.60;99.90;;;;;;6225968;23;20008;-94
2021/05/09 09:02:20;;;;;;;5.32;1.20;;;12.70;99.90;;;;;;6248998;23;20000;-92
2021/05/09 09:04:54;;;;;;;6.63;1.90;;;12.70;99.90;;;;;;6222672;23;20004;-94
2021/05/09 09:07:21;;;;;;;4.40;1.10;;;12.70;99.90;;;;;;6229226;23;20004;-93
2021/05/09 09:09:52;;;;;;;6.90;1.65;;;12.70;99.90;;;;;;6210243;23;20016;-94
2021/05/09 09:12:20;;;;;;;7.50;1.98;;;12.80;99.90;;;;;;6234531;23;20091;-94
2021/05/09 09:14:55;;;;;;;6.95;1.38;;;12.80;99.90;;;;;;6234448;23;20019;-93
2021/05/09 09:17:21;;;;;;;6.18;1.30;;;12.90;99.90;;;;;;6232630;23;19996;-93
2021/05/09 09:20:13;;;;;;;7.45;1.58;;;13.00;99.90;;;;;;6231888;23;20008;-91
2021/05/09 09:22:56;;;;;;;7.88;1.40;;;13.10;99.90;;;;;;6225483;23;20012;-92
2021/05/09 09:25:33;;;;;;;4.47;1.10;;;13.10;99.90;;;;;;6220920;23;20004;-94
2021/05/09 09:27:59;;;;;;;4.72;1.10;;;13.20;99.90;;;;;;6220933;23;20040;-94
2021/05/09 09:30:28;;;;;;;6.65;1.15;;;13.20;99.90;;;;;;6222000;23;20035;-93
2021/05/09 09:33:15;;;;;;;7.03;1.30;;;13.20;99.90;;;;;;6250911;23;20055;-93
2021/05/09 09:35:43;;;;;;;8.02;1.40;;;13.20;99.90;;;;;;6224947;23;20031;-93
2021/05/09 09:38:32;;;;;;;9.27;1.20;;;13.20;99.90;;;;;;6232874;23;20000;-94
2021/05/09 09:41:15;;;;;;;7.50;1.23;;;13.30;99.90;;;;;;6235943;23;20004;-94
2021/05/09 09:44:15;;;;;;;9.00;1.40;;;13.40;99.90;;;;;;6259715;23;20101;-94
2021/05/09 09:46:52;;;;;;;4.25;1.00;;;13.50;99.90;;;;;;6231967;23;20005;-93
2021/05/09 09:49:27;;;;;;;3.85;1.30;;;13.60;99.90;;;;;;6231330;23;20079;-94
2021/05/09 09:52:06;;;;;;;3.38;1.10;;;13.70;99.90;;;;;;6227629;23;20008;-93
2021/05/09 09:54:46;;;;;;;5.10;1.73;;;13.80;99.90;;;;;;6219067;23;20043;-93
2021/05/09 09:57:29;;;;;;;4.80;1.65;;;13.90;99.90;;;;;;6221159;23;20001;-94
2021/05/09 10:00:14;;;;;;;3.55;1.05;;;14.00;99.70;;;;;;6221826;23;20083;-93
2021/05/09 10:02:42;;;;;;;3.83;1.42;;;14.20;99.70;;;;;;6221908;23;20000;-91
2021/05/09 10:05:09;;;;;;;6.88;1.15;;;14.40;99.00;;;;;;6220772;23;20031;-92
2021/05/09 10:07:35;;;;;;;7.55;0.98;;;14.60;97.70;;;;;;6223149;23;20087;-92
2021/05/09 10:10:03;;;;;;;2.90;0.88;;;14.70;97.70;;;;;;6222260;23;20004;-92
2021/05/09 10:12:28;;;;;;;2.42;1.10;;;14.80;97.50;;;;;;6224850;23;20012;-93
2021/05/09 10:15:37;;;;;;;3.58;1.00;;;14.90;96.70;;;;;;6228714;23;20103;-92
2021/05/09 10:18:03;;;;;;;2.92;0.75;;;14.90;96.70;;;;;;6229341;23;20138;-93
2021/05/09 10:20:28;;;;;;;4.40;0.98;;;15.00;96.00;;;;;;6224761;23;20367;-93
2021/05/09 10:23:04;;;;;;;7.28;1.23;;;15.00;96.10;;;;;;6220376;23;20325;-93
2021/05/09 10:25:56;;;;;;;5.80;1.30;;;15.10;95.90;;;;;;6220776;23;20028;-92
2021/05/09 10:28:26;;;;;;;2.78;0.80;;;15.20;95.20;;;;;;6220834;23;20004;-92
2021/05/09 10:30:58;;;;;;;9.48;1.50;;;15.20;94.30;;;;;;6218886;23;20031;-93
2021/05/09 10:33:42;;;;;;;5.10;0.88;;;15.20;94.20;;;;;;6219945;23;20023;-94
2021/05/09 10:36:30;;;;;;;6.57;1.15;;;15.10;94.00;;;;;;6220939;23;20427;-93
2021/05/09 10:39:15;;;;;;;6.35;1.10;;;15.20;94.10;;;;;;6228538;23;20027;-92
2021/05/09 10:41:53;;;;;;;12.05;2.25;;;15.30;93.70;;;;;;6202451;23;20062;-93
2021/05/09 10:44:40;;;;;;;5.43;1.05;;;15.30;92.50;;;;;;6227708;23;20058;-92
2021/05/09 10:47:16;;;;;;;11.77;1.33;;;15.40;92.30;;;;;;6227420;23;20498;-93
2021/05/09 10:50:24;;;;;;;8.90;1.23;;;15.60;92.10;;;;;;6229112;23;20501;-92
2021/05/09 10:52:51;;;;;;;8.02;1.50;;;15.80;89.80;;;;;;6225797;23;20012;-93
2021/05/09 10:55:35;;;;;;;7.47;1.20;;;15.90;86.50;;;;;;6220007;23;20098;-92
2021/05/09 10:58:12;;;;;;;7.07;0.93;;;16.10;85.60;;;;;;6220316;23;20008;-91
2021/05/09 11:00:57;;;;;;;5.35;1.30;;;16.20;85.00;;;;;;6220786;23;20091;-93
2021/05/09 11:03:52;;;;;;;4.30;1.02;;;16.40;84.40;;;;;;6220354;23;20003;-93
2021/05/09 11:06:37;;;;;;;3.22;1.35;;;16.40;83.30;;;;;;6219811;23;20038;-93
2021/05/09 11:09:12;;;;;;;4.63;1.27;;;16.50;84.00;;;;;;6225641;23;20015;-93
2021/05/09 11:11:54;;;;;;;5.53;0.90;;;16.60;85.10;;;;;;6252325;23;20004;-93
2021/05/09 11:14:21;;;;;;;4.97;1.52;;;16.80;84.80;;;;;;6226572;23;20016;-92
2021/05/09 11:16:58;;;;;;;3.53;0.63;;;17.00;83.00;;;;;;6252502;23;20004;-92
2021/05/09 11:19:25;;;;;;;2.72;0.85;;;17.10;81.70;;;;;;6226065;23;20000;-93
2021/05/09 11:21:56;;;;;;;4.43;0.90;;;17.00;81.10;;;;;;6252290;23;20024;-92
2021/05/09 11:24:26;;;;;;;1.02;0.40;;;17.20;81.00;;;;;;6220676;23;20007;-93
2021/05/09 11:26:54;;;;;;;6.90;0.95;;;17.40;80.90;;;;;;6221960;23;20008;-92
2021/05/09 11:29:24;;;;;;;2.72;0.75;;;17.60;78.70;;;;;;6222931;23;20004;-94
2021/05/09 11:31:52;;;;;;;7.30;2.00;;;17.70;77.80;;;;;;6222115;23;20035;-93
2021/05/09 11:34:20;;;;;;;6.57;1.70;;;17.70;78.20;;;;;;6220257;23;20016;-94
2021/05/09 11:36:48;;;;;;;3.92;1.08;;;17.90;77.60;;;;;;6220385;23;20004;-92
2021/05/09 11:39:30;;;;;;;5.50;0.80;;;18.00;75.60;;;;;;6220060;23;20004;-92
2021/05/09 11:42:09;;;;;;;4.03;0.90;;;18.10;75.90;;;;;;6217467;23;20009;-93
2021/05/09 11:44:36;;;;;;;5.38;1.35;;;18.30;75.30;;;;;;6220998;23;20020;-93
2021/05/09 11:47:05;;;;;;;3.67;0.70;;;18.20;75.10;;;;;;6219551;23;20015;-92
2021/05/09 11:49:33;;;;;;;5.22;1.08;;;18.30;74.60;;;;;;6220288;23;20004;-93
2021/05/09 11:52:03;;;;;;;6.35;1.30;;;18.30;74.80;;;;;;6222342;23;20008;-94
2021/05/09 11:54:35;;;;;;;11.55;1.27;;;18.30;75.50;;;;;;6222971;23;20046;-93
2021/05/09 11:57:08;;;;;;;4.22;1.10;;;18.50;75.60;;;;;;6222492;23;20008;-93
2021/05/09 11:59:58;;;;;;;6.10;1.58;;;18.70;74.50;;;;;;6222474;23;20008;-92
2021/05/09 12:02:26;;;;;;;4.90;1.05;;;18.70;74.30;;;;;;6222332;23;20004;-93
2021/05/09 12:04:59;;;;;;;10.00;1.65;;;18.90;74.30;;;;;;6221209;23;20031;-93
2021/05/09 12:07:32;;;;;;;2.22;0.80;;;19.00;73.80;;;;;;6221833;23;20451;-93
2021/05/09 12:10:08;;;;;;;2.70;0.80;;;19.10;72.30;;;;;;6230507;23;20004;-93
2021/05/09 12:12:44;;;;;;;4.80;2.05;;;19.00;71.40;;;;;;6237969;23;20008;-93
2021/05/09 12:15:18;;;;;;;5.07;0.90;;;19.00;72.00;;;;;;6259928;23;20008;-93
2021/05/09 12:17:55;;;;;;;4.10;1.23;;;18.90;72.20;;;;;;6235646;23;20007;-93
2021/05/09 12:20:43;;;;;;;4.97;0.95;;;18.70;71.80;;;;;;6234006;23;20011;-93
2021/05/09 12:23:24;;;;;;;6.68;1.40;;;18.60;72.40;;;;;;6234525;23;20015;-93
2021/05/09 12:25:50;;;;;;;;;;;18.40;72.90;;;;;;6222414;23;20443;-93
2021/05/09 12:28:26;;;;;;;6.60;1.25;;;18.50;73.80;;;;;;6221694;23;19904;-93
2021/05/09 12:30:55;;;;;;;4.72;1.10;;;18.60;73.70;;;;;;6222442;23;20281;-94
2021/05/09 12:33:26;;;;;;;6.07;1.23;;;18.60;73.70;;;;;;6221755;23;20023;-95
2021/05/09 12:35:54;;;;;;;7.20;1.40;;;18.60;74.30;;;;;;6220999;23;20778;-93
2021/05/09 12:38:28;;;;;;;9.52;1.23;;;18.60;75.10;;;;;;6245991;23;20011;-94
2021/05/09 12:41:20;;;;;;;8.25;1.10;;;18.60;74.10;;;;;;6221232;23;20087;-93
2021/05/09 12:43:51;;;;;;;9.30;1.55;;;18.50;73.60;;;;;;6241306;22;20024;-93
2021/05/09 12:46:38;;;;;;;5.70;1.60;;;18.50;72.60;;;;;;6221719;23;20452;-93
2021/05/09 12:49:08;;;;;;;8.02;1.90;;;18.50;72.30;;;;;;6221910;23;20006;-93
2021/05/09 12:51:34;;;;;;;5.00;1.00;;;18.50;72.20;;;;;;6221970;23;20454;-93
2021/05/09 12:54:00;;;;;;;5.40;1.23;;;18.70;73.10;;;;;;6220565;23;20009;-94
2021/05/09 12:56:26;;;;;;;6.40;1.30;;;18.70;72.80;;;;;;6245238;23;20095;-93
2021/05/09 12:59:17;;;;;;;6.07;1.05;;;18.70;72.70;;;;;;6248990;23;20008;-93
2021/05/09 13:01:45;;;;;;;5.27;1.10;;;18.70;72.90;;;;;;6227121;23;19996;-91
2021/05/09 13:04:35;;;;;;;5.97;1.55;;;18.60;72.70;;;;;;6225159;23;20250;-94